Time;durP1;ratioP1;P1;durP2;ratioP2;P2;SDS_P1;SDS_P2;PMS_P1;PMS_P2;Temp;Humidity;BMP_temperature;BMP_pressure;BME280_temperature;BME280_humidity;BME280_pressure;Samples;Min_cycle;Max_cycle;Signal;HPM_P1;HPM_P2
2020/12/31 00:00:22;;;;;;;13.80;7.50;;;2.70;99.90;;;;;;4904001;28;20156;-81
2020/12/31 00:02:44;;;;;;;15.15;7.07;;;2.70;99.90;;;;;;4894022;28;20087;-82
2020/12/31 00:05:07;;;;;;;15.20;6.75;;;;;;;;;;4911324;28;20184;-81
2020/12/31 00:07:31;;;;;;;16.52;7.47;;;2.60;99.90;;;;;;4912283;28;20097;-81
2020/12/31 00:09:54;;;;;;;20.80;7.45;;;2.60;99.90;;;;;;4912557;28;20092;-82
2020/12/31 00:12:17;;;;;;;17.52;7.20;;;2.60;99.90;;;;;;4911447;28;20526;-82
2020/12/31 00:14:41;;;;;;;15.95;7.40;;;2.60;99.90;;;;;;4912475;28;20673;-81
2020/12/31 00:17:03;;;;;;;14.55;7.00;;;2.60;99.90;;;;;;4913364;28;20121;-80
2020/12/31 00:19:26;;;;;;;16.77;7.30;;;2.60;99.90;;;;;;4900672;28;20106;-82
2020/12/31 00:21:49;;;;;;;21.77;7.30;;;2.60;99.90;;;;;;4908655;28;21043;-81
2020/12/31 00:24:13;;;;;;;17.55;7.88;;;2.60;99.90;;;;;;4912107;28;20103;-81
2020/12/31 00:26:36;;;;;;;15.88;7.45;;;2.60;99.90;;;;;;4911238;28;20103;-81
2020/12/31 00:28:58;;;;;;;19.70;7.85;;;2.60;99.90;;;;;;4909777;28;20189;-82
2020/12/31 00:31:21;;;;;;;20.73;8.27;;;2.70;99.90;;;;;;4912718;28;20122;-80
2020/12/31 00:33:46;;;;;;;19.33;7.35;;;2.70;99.90;;;;;;4907687;28;20470;-81
2020/12/31 00:36:08;;;;;;;18.67;7.93;;;2.60;99.90;;;;;;4912167;28;20087;-80
2020/12/31 00:38:31;;;;;;;18.88;6.95;;;2.60;99.90;;;;;;4910691;28;20086;-81
2020/12/31 00:40:55;;;;;;;17.60;7.70;;;;;;;;;;4912168;28;20437;-82
2020/12/31 00:43:18;;;;;;;16.10;7.70;;;2.70;99.90;;;;;;4910738;28;20089;-81
2020/12/31 00:45:41;;;;;;;18.48;8.45;;;;;;;;;;4912622;28;20520;-82
2020/12/31 00:48:03;;;;;;;17.65;7.93;;;2.70;99.90;;;;;;4910361;28;20177;-82
2020/12/31 00:50:27;;;;;;;16.80;8.10;;;2.60;99.90;;;;;;4910614;28;20117;-82
2020/12/31 00:52:50;;;;;;;17.80;8.50;;;2.60;99.90;;;;;;4911733;28;20100;-82
2020/12/31 00:55:12;;;;;;;20.33;8.73;;;2.60;99.90;;;;;;4911365;28;20092;-81
2020/12/31 00:57:36;;;;;;;18.88;8.30;;;;;;;;;;4911055;28;20079;-81
2020/12/31 00:59:59;;;;;;;17.92;7.90;;;2.50;99.90;;;;;;4911514;28;20097;-82
2020/12/31 01:02:22;;;;;;;22.98;9.32;;;2.50;99.90;;;;;;4912761;28;20510;-81
2020/12/31 01:04:44;;;;;;;17.13;8.55;;;2.50;99.90;;;;;;4913212;28;20228;-81
2020/12/31 01:07:07;;;;;;;26.33;8.88;;;2.50;99.90;;;;;;4910560;28;20084;-81
2020/12/31 01:09:30;;;;;;;19.80;8.05;;;2.40;99.90;;;;;;4904725;28;20247;-81
2020/12/31 01:11:55;;;;;;;22.15;9.50;;;2.50;99.90;;;;;;4912428;28;20083;-81
2020/12/31 01:14:19;;;;;;;;;;;2.50;99.90;;;;;;4911493;28;20182;-81
2020/12/31 01:16:47;;;;;;;16.30;7.60;;;2.40;99.90;;;;;;4911931;28;20053;-81
2020/12/31 01:19:10;;;;;;;22.63;8.45;;;;;;;;;;4898671;28;20554;-81
2020/12/31 01:21:33;;;;;;;23.48;10.02;;;;;;;;;;4907947;28;20432;-82
2020/12/31 01:23:56;;;;;;;20.67;9.07;;;2.30;99.90;;;;;;4910317;28;20092;-81
2020/12/31 01:26:31;;;;;;;27.48;9.05;;;2.30;99.90;;;;;;4911322;28;20609;-80
2020/12/31 01:28:54;;;;;;;22.50;8.93;;;2.20;99.90;;;;;;4910638;28;20207;-81
2020/12/31 01:31:18;;;;;;;19.45;8.73;;;;;;;;;;4910250;28;20092;-81
2020/12/31 01:33:41;;;;;;;24.95;10.38;;;;;;;;;;4910957;28;20532;-80
2020/12/31 01:36:07;;;;;;;25.17;8.90;;;2.20;99.90;;;;;;4909502;28;20121;-81
2020/12/31 01:38:30;;;;;;;24.67;10.50;;;2.30;99.90;;;;;;4910401;28;20136;-82
2020/12/31 01:40:53;;;;;;;24.02;9.88;;;2.20;99.90;;;;;;4910674;28;20107;-82
2020/12/31 01:43:15;;;;;;;25.52;10.20;;;2.20;99.90;;;;;;4909612;28;20517;-81
2020/12/31 01:45:38;;;;;;;27.20;10.52;;;2.20;99.90;;;;;;4909810;28;20553;-81
2020/12/31 01:48:02;;;;;;;28.20;10.48;;;2.20;99.90;;;;;;4910627;28;20093;-81
2020/12/31 01:50:25;;;;;;;33.88;10.23;;;2.20;99.90;;;;;;4901202;28;20184;-81
2020/12/31 01:52:49;;;;;;;26.70;10.45;;;2.30;99.90;;;;;;4909443;28;20183;-80
2020/12/31 01:55:12;;;;;;;32.50;10.07;;;2.40;99.90;;;;;;4911052;28;20182;-82
2020/12/31 01:57:36;;;;;;;25.65;10.27;;;2.40;99.90;;;;;;4909087;28;21732;-81
2020/12/31 01:59:59;;;;;;;26.35;10.23;;;2.40;99.90;;;;;;4910402;28;20097;-82
2020/12/31 02:02:21;;;;;;;25.05;10.95;;;2.50;99.90;;;;;;4910451;28;20175;-80
2020/12/31 02:04:45;;;;;;;28.98;11.32;;;2.40;99.90;;;;;;4903554;28;20171;-83
2020/12/31 02:07:08;;;;;;;25.23;11.10;;;2.40;99.90;;;;;;4890459;28;20517;-82
2020/12/31 02:09:33;;;;;;;26.63;10.30;;;2.40;99.90;;;;;;4902492;28;20084;-82
2020/12/31 02:11:55;;;;;;;22.52;10.13;;;2.40;99.90;;;;;;4911733;28;20078;-82
2020/12/31 02:14:18;;;;;;;22.65;9.75;;;2.40;99.90;;;;;;4910466;28;20084;-80
2020/12/31 02:16:41;;;;;;;22.67;9.18;;;2.40;99.90;;;;;;4911019;28;20097;-80
2020/12/31 02:19:07;;;;;;;24.27;10.25;;;2.40;99.90;;;;;;4908686;28;20090;-82
2020/12/31 02:21:32;;;;;;;22.10;9.02;;;2.40;99.90;;;;;;4909925;28;20177;-81
2020/12/31 02:23:56;;;;;;;22.15;9.48;;;2.50;99.90;;;;;;4907480;28;20079;-81
2020/12/31 02:26:20;;;;;;;22.58;9.68;;;2.50;99.90;;;;;;4911054;28;20170;-81
2020/12/31 02:28:43;;;;;;;26.73;9.65;;;2.50;99.90;;;;;;4909868;28;20430;-82
2020/12/31 02:31:06;;;;;;;21.48;10.07;;;2.50;99.90;;;;;;4909614;28;20520;-81
2020/12/31 02:33:29;;;;;;;22.75;9.73;;;2.50;99.90;;;;;;4909905;28;20096;-81
2020/12/31 02:35:52;;;;;;;21.67;9.43;;;2.60;99.90;;;;;;4908669;28;20690;-81
2020/12/31 02:38:16;;;;;;;26.15;10.27;;;2.60;99.90;;;;;;4907523;28;20115;-81
2020/12/31 02:40:39;;;;;;;23.13;9.10;;;2.60;99.90;;;;;;4902744;28;20088;-81
2020/12/31 02:43:02;;;;;;;24.17;9.88;;;2.60;99.90;;;;;;4907713;28;20456;-81
2020/12/31 02:45:25;;;;;;;19.38;9.23;;;2.60;99.90;;;;;;4908602;28;20093;-82
2020/12/31 02:47:47;;;;;;;19.83;9.45;;;2.60;99.90;;;;;;4909903;28;20944;-82
2020/12/31 02:50:12;;;;;;;20.27;9.10;;;2.60;99.90;;;;;;4908139;28;20176;-81
2020/12/31 02:52:34;;;;;;;27.30;9.55;;;2.60;99.90;;;;;;4910238;28;20099;-82
2020/12/31 02:54:57;;;;;;;21.13;8.70;;;2.60;99.90;;;;;;4909104;28;20120;-81
2020/12/31 02:57:21;;;;;;;21.95;9.20;;;2.60;99.90;;;;;;4909535;28;20156;-81
2020/12/31 02:59:43;;;;;;;21.88;9.02;;;2.70;99.90;;;;;;4909442;28;20084;-81
2020/12/31 03:02:06;;;;;;;24.75;10.02;;;2.70;99.90;;;;;;4909976;28;20121;-81
2020/12/31 03:04:29;;;;;;;20.48;9.68;;;2.70;99.90;;;;;;4910010;28;20191;-81
2020/12/31 03:06:51;;;;;;;20.95;8.82;;;2.70;99.90;;;;;;4908787;28;20181;-82
2020/12/31 03:09:14;;;;;;;21.85;8.52;;;2.70;99.90;;;;;;4909712;28;20099;-81
2020/12/31 03:11:37;;;;;;;18.42;8.73;;;2.70;99.90;;;;;;4908761;28;20100;-81
2020/12/31 03:14:01;;;;;;;23.23;9.52;;;2.70;99.90;;;;;;4909211;28;20096;-80
2020/12/31 03:16:24;;;;;;;22.67;9.13;;;2.70;99.90;;;;;;4909763;28;20511;-82
2020/12/31 03:18:47;;;;;;;28.65;9.65;;;2.70;99.90;;;;;;4910289;28;20089;-81
2020/12/31 03:21:09;;;;;;;21.05;9.27;;;2.70;99.90;;;;;;4903427;28;20554;-80
2020/12/31 03:23:32;;;;;;;18.67;8.73;;;2.70;99.90;;;;;;4908974;28;20099;-81
2020/12/31 03:25:55;;;;;;;22.50;10.10;;;2.70;99.90;;;;;;4908773;28;20130;-81
2020/12/31 03:28:18;;;;;;;30.23;9.27;;;2.70;99.90;;;;;;4900011;28;20108;-81
2020/12/31 03:30:43;;;;;;;24.17;9.80;;;2.70;99.90;;;;;;4909395;28;20514;-81
2020/12/31 03:33:06;;;;;;;23.35;9.05;;;2.70;99.90;;;;;;4909343;28;20531;-81
2020/12/31 03:35:28;;;;;;;23.17;9.48;;;2.70;99.90;;;;;;4910094;28;20080;-81
2020/12/31 03:37:51;;;;;;;20.98;8.38;;;;;;;;;;4908996;28;20630;-81
2020/12/31 03:40:16;;;;;;;21.83;9.38;;;2.70;99.90;;;;;;4908776;28;20167;-81
2020/12/31 03:42:39;;;;;;;23.55;9.70;;;2.70;99.90;;;;;;4909692;28;20166;-82
2020/12/31 03:45:02;;;;;;;19.65;8.50;;;2.70;99.90;;;;;;4909814;28;20254;-81
2020/12/31 03:47:25;;;;;;;25.23;9.23;;;;;;;;;;4908650;28;20178;-81
2020/12/31 03:49:50;;;;;;;25.63;10.75;;;2.70;99.90;;;;;;4912426;28;20092;-81
2020/12/31 03:52:13;;;;;;;21.50;9.40;;;;;;;;;;4913168;28;20539;-81
2020/12/31 03:54:35;;;;;;;26.05;9.90;;;2.70;99.90;;;;;;4912443;28;20088;-82
2020/12/31 03:56:58;;;;;;;24.08;10.10;;;2.70;99.90;;;;;;4912849;28;20167;-82
2020/12/31 03:59:21;;;;;;;31.02;10.38;;;2.70;99.90;;;;;;4896674;28;20613;-83
2020/12/31 04:01:45;;;;;;;29.92;11.05;;;2.70;99.90;;;;;;4915737;28;20176;-81
2020/12/31 04:04:09;;;;;;;24.13;10.40;;;;;;;;;;4912226;28;20173;-81
2020/12/31 04:06:32;;;;;;;22.40;9.80;;;2.70;99.90;;;;;;4911501;28;20538;-81
2020/12/31 04:08:55;;;;;;;24.35;9.82;;;2.70;99.90;;;;;;4910586;28;20085;-82
2020/12/31 04:11:17;;;;;;;28.35;10.35;;;2.70;99.90;;;;;;4913065;28;20497;-81
2020/12/31 04:13:40;;;;;;;27.67;10.43;;;2.60;99.90;;;;;;4911575;28;20188;-82
2020/12/31 04:16:03;;;;;;;25.15;10.45;;;2.60;99.90;;;;;;4912257;28;20168;-81
2020/12/31 04:18:26;;;;;;;27.33;10.35;;;2.50;99.90;;;;;;4911350;28;20174;-80
2020/12/31 04:20:50;;;;;;;24.02;10.27;;;;;;;;;;4912662;28;20163;-81
2020/12/31 04:23:13;;;;;;;23.98;9.43;;;2.50;99.90;;;;;;4912317;28;20093;-82
2020/12/31 04:25:36;;;;;;;28.20;10.13;;;2.50;99.90;;;;;;4911840;28;20519;-81
2020/12/31 04:27:58;;;;;;;25.35;9.85;;;2.50;99.90;;;;;;4911576;28;20099;-81
2020/12/31 04:30:21;;;;;;;25.48;10.35;;;2.50;99.90;;;;;;4911457;28;20100;-82
2020/12/31 04:32:44;;;;;;;23.48;9.82;;;;;;;;;;4912435;28;20181;-81
2020/12/31 04:35:07;;;;;;;23.42;9.63;;;2.50;99.90;;;;;;4914549;28;20205;-81
2020/12/31 04:37:31;;;;;;;22.50;9.98;;;;;;;;;;4911843;28;20169;-80
2020/12/31 04:39:53;;;;;;;29.42;10.80;;;2.50;99.90;;;;;;4912348;28;20167;-82
2020/12/31 04:42:16;;;;;;;26.55;10.80;;;2.50;99.90;;;;;;4910168;28;20102;-81
2020/12/31 04:44:40;;;;;;;31.02;11.77;;;2.50;99.90;;;;;;4908856;28;20095;-83
2020/12/31 04:47:04;;;;;;;29.38;10.63;;;2.50;99.90;;;;;;4910522;28;20087;-82
2020/12/31 04:49:29;;;;;;;31.98;11.35;;;2.50;99.90;;;;;;4912152;28;20080;-81
2020/12/31 04:51:54;;;;;;;26.67;10.48;;;2.40;99.90;;;;;;4911015;28;20119;-81
2020/12/31 04:54:18;;;;;;;26.48;9.98;;;2.50;99.90;;;;;;4912067;28;20738;-81
2020/12/31 04:56:41;;;;;;;24.45;10.30;;;2.50;99.90;;;;;;4914738;28;20498;-82
2020/12/31 04:59:06;;;;;;;26.17;10.57;;;2.50;99.90;;;;;;4909868;28;20122;-81
2020/12/31 05:01:28;;;;;;;31.33;10.70;;;2.50;99.90;;;;;;4911660;28;20083;-82
2020/12/31 05:03:51;;;;;;;31.58;10.63;;;2.60;99.90;;;;;;4912299;28;20083;-82
2020/12/31 05:06:18;;;;;;;29.10;11.05;;;2.60;99.90;;;;;;4910466;28;20580;-81
2020/12/31 05:08:41;;;;;;;24.92;10.85;;;2.60;99.90;;;;;;4912650;28;20481;-80
2020/12/31 05:11:05;;;;;;;32.63;11.73;;;;;;;;;;4911761;28;20126;-80
2020/12/31 05:13:29;;;;;;;28.60;10.90;;;2.60;99.90;;;;;;4908853;28;20214;-81
2020/12/31 05:15:52;;;;;;;28.13;10.80;;;2.60;99.90;;;;;;4910247;28;20082;-81
2020/12/31 05:18:19;;;;;;;28.45;10.63;;;2.60;99.90;;;;;;4909410;28;20526;-81
2020/12/31 05:20:43;;;;;;;26.88;10.60;;;2.60;99.90;;;;;;4899983;28;20106;-81
2020/12/31 05:23:11;;;;;;;28.92;10.68;;;2.60;99.90;;;;;;4910269;28;20178;-81
2020/12/31 05:25:34;;;;;;;23.38;10.43;;;2.50;99.90;;;;;;4910601;28;20095;-81
2020/12/31 05:27:58;;;;;;;26.80;9.85;;;2.40;99.90;;;;;;4910304;28;20113;-82
2020/12/31 05:30:21;;;;;;;24.92;9.60;;;2.30;99.90;;;;;;4909282;28;20086;-82
2020/12/31 05:32:44;;;;;;;22.02;9.43;;;2.30;99.90;;;;;;4911221;28;20169;-82
2020/12/31 05:35:11;;;;;;;24.98;9.05;;;2.20;99.90;;;;;;4909053;28;20086;-82
2020/12/31 05:37:34;;;;;;;21.95;9.50;;;2.10;99.90;;;;;;4910998;28;20087;-82
2020/12/31 05:39:58;;;;;;;22.83;9.82;;;2.10;99.90;;;;;;4911396;28;20080;-82
2020/12/31 05:42:22;;;;;;;19.88;8.80;;;2.20;99.90;;;;;;4910026;28;20103;-82
2020/12/31 05:45:00;;;;;;;28.10;10.20;;;2.20;99.90;;;;;;4910017;28;20095;-80
2020/12/31 05:47:23;;;;;;;24.40;8.77;;;2.20;99.90;;;;;;4907720;28;20632;-81
2020/12/31 05:49:45;;;;;;;22.70;9.48;;;2.20;99.90;;;;;;4889531;28;20089;-81
2020/12/31 05:52:08;;;;;;;22.45;9.80;;;2.20;99.90;;;;;;4906264;28;20163;-82
2020/12/31 05:54:36;;;;;;;29.65;10.80;;;2.10;99.90;;;;;;4910304;28;20174;-81
2020/12/31 05:57:05;;;;;;;25.70;10.98;;;2.10;99.90;;;;;;4908985;28;20090;-82
2020/12/31 05:59:28;;;;;;;29.27;10.93;;;2.00;99.90;;;;;;4910729;28;20534;-81
2020/12/31 06:01:56;;;;;;;25.42;10.73;;;1.90;99.90;;;;;;4910559;28;20079;-81
2020/12/31 06:04:21;;;;;;;28.17;9.82;;;1.90;99.90;;;;;;4910664;28;20121;-79
2020/12/31 06:06:50;;;;;;;31.43;10.63;;;1.80;99.90;;;;;;4902461;28;20112;-82
2020/12/31 06:09:26;;;;;;;27.75;10.55;;;1.80;99.90;;;;;;4902772;28;20525;-81
2020/12/31 06:11:57;;;;;;;26.08;10.45;;;1.70;99.90;;;;;;4909089;28;20095;-82
2020/12/31 06:14:26;;;;;;;28.20;10.25;;;1.60;99.90;;;;;;4910189;28;20115;-81
2020/12/31 06:16:56;;;;;;;24.33;9.82;;;1.60;99.90;;;;;;4908392;28;20091;-81
2020/12/31 06:19:29;;;;;;;26.90;11.25;;;1.50;99.90;;;;;;4909097;28;20159;-82
2020/12/31 06:22:02;;;;;;;25.33;10.70;;;1.50;99.90;;;;;;4909700;28;20094;-81
2020/12/31 06:24:32;;;;;;;23.92;9.63;;;1.50;99.90;;;;;;4908839;28;20080;-81
2020/12/31 06:26:54;;;;;;;36.75;11.20;;;1.40;99.90;;;;;;4910614;28;20533;-82
2020/12/31 06:29:17;;;;;;;27.95;10.90;;;1.40;99.90;;;;;;4909294;28;20089;-81
2020/12/31 06:31:50;;;;;;;29.20;10.90;;;1.50;99.90;;;;;;4910809;28;20180;-81
2020/12/31 06:34:20;;;;;;;32.38;11.10;;;1.50;99.90;;;;;;4911127;28;20212;-80
2020/12/31 06:36:44;;;;;;;28.02;11.45;;;1.50;99.90;;;;;;4910934;28;20444;-81
2020/12/31 06:39:08;;;;;;;27.45;10.30;;;1.60;99.90;;;;;;4898733;28;20111;-81
2020/12/31 06:41:42;;;;;;;30.92;11.52;;;1.80;99.90;;;;;;4909749;28;20500;-81
2020/12/31 06:44:10;;;;;;;32.67;11.38;;;;;;;;;;4888177;28;20090;-81
2020/12/31 06:46:41;;;;;;;35.83;11.00;;;1.90;99.90;;;;;;4896848;28;20082;-80
2020/12/31 06:49:05;;;;;;;31.02;10.80;;;1.90;99.90;;;;;;4906479;28;20170;-80
2020/12/31 06:51:29;;;;;;;30.90;11.68;;;2.00;99.90;;;;;;4909756;28;20577;-82
2020/12/31 06:53:53;;;;;;;22.35;9.02;;;2.00;99.90;;;;;;4909997;28;20166;-82
2020/12/31 06:56:37;;;;;;;30.75;10.80;;;2.10;99.90;;;;;;4911942;28;20093;-81
2020/12/31 06:59:01;;;;;;;32.17;12.38;;;2.00;99.90;;;;;;4910032;28;20123;-81
2020/12/31 07:01:25;;;;;;;33.00;11.95;;;2.10;99.90;;;;;;4910189;28;20114;-81
2020/12/31 07:03:48;;;;;;;33.03;11.77;;;2.10;99.90;;;;;;4889004;28;20119;-81
2020/12/31 07:06:35;;;;;;;34.38;12.30;;;2.10;99.90;;;;;;4890406;28;20560;-81
2020/12/31 07:09:02;;;;;;;33.53;10.95;;;2.10;99.90;;;;;;4909256;28;20171;-82
2020/12/31 07:11:45;;;;;;;31.02;11.90;;;2.10;99.90;;;;;;4909810;28;20480;-81
2020/12/31 07:14:24;;;;;;;38.28;13.30;;;2.20;99.90;;;;;;4890199;28;20125;-81
2020/12/31 07:16:57;;;;;;;30.50;11.55;;;2.20;99.90;;;;;;4907910;28;20148;-81
2020/12/31 07:19:21;;;;;;;34.53;12.65;;;2.20;99.90;;;;;;4901672;28;20731;-81
2020/12/31 07:21:49;;;;;;;36.33;12.93;;;2.20;99.90;;;;;;4912443;28;20179;-82
2020/12/31 07:24:23;;;;;;;31.00;12.85;;;2.30;99.90;;;;;;4913859;28;20172;-82
2020/12/31 07:26:46;;;;;;;30.88;12.27;;;2.30;99.90;;;;;;4913277;28;20088;-81
2020/12/31 07:29:12;;;;;;;37.65;12.73;;;2.30;99.90;;;;;;4913504;28;20168;-81
2020/12/31 07:31:40;;;;;;;;;;;2.30;99.90;;;;;;4908546;28;20102;-81
2020/12/31 07:34:24;;;;;;;36.90;11.95;;;2.40;99.90;;;;;;4909542;28;19973;-81
2020/12/31 07:37:01;;;;;;;37.55;12.90;;;2.40;99.90;;;;;;4902392;28;20094;-81
2020/12/31 07:39:24;;;;;;;38.20;13.68;;;2.40;99.90;;;;;;4909821;28;20181;-81
2020/12/31 07:41:47;;;;;;;33.78;12.52;;;2.40;99.90;;;;;;4902759;28;20117;-81
2020/12/31 07:44:10;;;;;;;33.92;12.40;;;2.50;99.90;;;;;;4913052;28;20511;-81
2020/12/31 07:46:35;;;;;;;27.75;12.05;;;2.50;99.90;;;;;;4911169;28;20154;-82
2020/12/31 07:48:58;;;;;;;;;;;2.50;99.90;;;;;;4912058;28;20555;-81
2020/12/31 07:51:21;;;;;;;35.40;11.95;;;2.50;99.90;;;;;;4911150;28;19964;-81
2020/12/31 07:53:45;;;;;;;32.03;12.57;;;;;;;;;;4912704;28;20088;-82
2020/12/31 07:56:13;;;;;;;33.22;12.15;;;2.60;99.90;;;;;;4912395;28;20165;-81
2020/12/31 07:58:36;;;;;;;33.90;12.43;;;2.50;99.90;;;;;;4911825;28;20080;-82
2020/12/31 08:00:59;;;;;;;36.33;12.95;;;2.60;99.90;;;;;;4893972;28;20519;-80
2020/12/31 08:03:24;;;;;;;34.90;13.30;;;2.60;99.90;;;;;;4912189;28;20098;-81
2020/12/31 08:05:47;;;;;;;29.70;12.18;;;2.60;99.90;;;;;;4912253;28;20197;-81
2020/12/31 08:08:10;;;;;;;32.33;12.63;;;2.70;99.90;;;;;;4912074;28;20096;-81
2020/12/31 08:10:35;;;;;;;37.03;12.93;;;2.70;99.90;;;;;;4911780;28;20116;-82
2020/12/31 08:13:00;;;;;;;33.88;13.85;;;2.70;99.90;;;;;;4912412;28;20098;-82
2020/12/31 08:15:24;;;;;;;33.35;13.35;;;2.70;99.90;;;;;;4911673;28;20166;-81
2020/12/31 08:17:51;;;;;;;32.50;13.23;;;2.70;99.90;;;;;;4911192;28;20186;-82
2020/12/31 08:20:14;;;;;;;34.55;14.20;;;2.80;99.90;;;;;;4911273;28;20087;-81
2020/12/31 08:22:40;;;;;;;37.70;13.48;;;2.80;99.90;;;;;;4901579;28;20576;-80
2020/12/31 08:25:09;;;;;;;32.13;13.57;;;2.90;99.90;;;;;;4912960;28;20219;-80
2020/12/31 08:27:38;;;;;;;29.73;13.27;;;2.90;99.90;;;;;;4911992;28;20107;-82
2020/12/31 08:30:03;;;;;;;34.00;15.20;;;3.00;99.90;;;;;;4911682;28;20086;-81
2020/12/31 08:32:28;;;;;;;36.25;12.98;;;3.00;99.90;;;;;;4903116;28;20099;-81
2020/12/31 08:34:55;;;;;;;38.65;14.55;;;3.10;99.90;;;;;;4909710;28;20130;-82
2020/12/31 08:37:18;;;;;;;35.55;14.65;;;3.10;99.90;;;;;;4893047;28;20221;-80
2020/12/31 08:39:42;;;;;;;34.78;13.88;;;3.10;99.90;;;;;;4892805;28;20509;-80
2020/12/31 08:42:07;;;;;;;30.23;13.80;;;3.10;99.90;;;;;;4911608;28;20972;-81
2020/12/31 08:44:33;;;;;;;38.83;13.93;;;3.10;99.90;;;;;;4912119;28;20183;-82
2020/12/31 08:46:56;;;;;;;34.63;13.82;;;3.20;99.90;;;;;;4911279;28;20096;-82
2020/12/31 08:49:28;;;;;;;38.60;14.30;;;3.20;99.90;;;;;;4912426;28;20493;-82
2020/12/31 08:51:52;;;;;;;33.90;12.32;;;3.20;99.90;;;;;;4910784;28;20094;-81
2020/12/31 08:54:16;;;;;;;27.08;12.25;;;3.20;99.90;;;;;;4911651;28;20083;-82
2020/12/31 08:56:38;;;;;;;27.17;12.32;;;3.20;99.90;;;;;;4910116;28;20079;-82
2020/12/31 08:59:08;;;;;;;33.00;13.63;;;3.20;99.90;;;;;;4912484;28;20089;-82
2020/12/31 09:02:02;;;;;;;33.30;12.93;;;3.20;99.90;;;;;;4858886;28;20087;-81
2020/12/31 09:04:26;;;;;;;32.10;12.50;;;3.30;99.90;;;;;;4850990;28;20526;-82
2020/12/31 09:07:10;;;;;;;30.70;13.00;;;3.30;99.90;;;;;;4866349;28;20811;-81
2020/12/31 09:09:34;;;;;;;31.15;12.68;;;3.30;99.90;;;;;;4868721;28;20422;-81
2020/12/31 09:12:01;;;;;;;26.95;12.50;;;3.40;99.90;;;;;;4860144;28;20182;-81
2020/12/31 09:14:36;;;;;;;32.92;12.65;;;3.40;99.90;;;;;;4850828;28;20095;-82
2020/12/31 09:17:55;;;;;;;25.88;10.95;;;3.50;99.90;;;;;;4851056;28;20086;-82
2020/12/31 09:20:30;;;;;;;22.60;10.18;;;;;;;;;;4852003;28;20140;-83
2020/12/31 09:30:15;;;;;;;28.48;9.27;;;3.30;99.90;;;;;;4851037;28;20419;-81
2020/12/31 09:32:40;;;;;;;23.08;10.23;;;3.30;99.90;;;;;;4852078;28;20144;-82
2020/12/31 09:35:17;;;;;;;21.83;8.93;;;3.20;99.90;;;;;;4846743;28;20096;-81
2020/12/31 09:41:01;;;;;;;18.13;8.48;;;3.30;99.90;;;;;;4846283;28;20087;-82
2020/12/31 09:43:24;;;;;;;22.50;9.23;;;3.30;99.90;;;;;;4865219;28;20095;-81
2020/12/31 09:46:22;;;;;;;26.05;9.98;;;3.30;99.90;;;;;;4859682;28;20098;-80
2020/12/31 09:48:48;;;;;;;19.77;8.68;;;3.30;99.90;;;;;;4849886;28;20523;-80
2020/12/31 09:51:20;;;;;;;19.83;8.73;;;3.40;99.90;;;;;;4829614;28;20112;-81
2020/12/31 10:14:37;;;;;;;19.27;7.75;;;5.40;99.90;;;;;;4831880;27;20092;-79
2020/12/31 10:28:02;;;;;;;18.10;7.88;;;4.50;99.90;;;;;;4863332;28;20105;-80
2020/12/31 10:33:59;;;;;;;15.77;6.15;;;4.00;99.90;;;;;;4860692;28;20476;-80
2020/12/31 10:36:55;;;;;;;17.30;5.75;;;3.80;99.90;;;;;;4858022;28;20082;-81
2020/12/31 10:39:50;;;;;;;21.15;6.82;;;3.60;99.90;;;;;;4854704;28;20165;-80
2020/12/31 10:42:57;;;;;;;13.65;6.25;;;3.50;99.90;;;;;;4875681;28;20162;-82
2020/12/31 10:45:51;;;;;;;11.70;5.97;;;3.40;99.90;;;;;;4852307;28;20106;-82
2020/12/31 10:48:14;;;;;;;12.23;5.93;;;3.40;99.90;;;;;;4919868;28;20095;-82
2020/12/31 10:50:37;;;;;;;12.88;6.32;;;3.40;99.90;;;;;;4909638;28;22977;-82
2020/12/31 10:53:00;;;;;;;15.85;6.30;;;3.40;99.90;;;;;;4893175;28;20094;-82
2020/12/31 10:55:24;;;;;;;13.98;6.95;;;3.30;99.90;;;;;;4896106;28;20096;-82
2020/12/31 10:57:48;;;;;;;17.95;6.70;;;3.30;99.90;;;;;;4895370;28;20470;-83
2020/12/31 11:00:12;;;;;;;14.60;6.65;;;3.30;99.90;;;;;;4897782;28;20438;-83
2020/12/31 11:02:36;;;;;;;14.18;5.65;;;3.40;99.90;;;;;;4893247;28;20140;-82
2020/12/31 11:05:04;;;;;;;13.07;5.80;;;3.50;99.90;;;;;;4885208;28;20091;-83
2020/12/31 11:07:29;;;;;;;13.10;5.50;;;3.40;99.90;;;;;;4891334;28;20932;-82
2020/12/31 11:09:52;;;;;;;13.10;5.50;;;3.30;99.90;;;;;;4896589;28;20106;-83
2020/12/31 11:12:15;;;;;;;14.57;5.60;;;3.30;99.90;;;;;;4885450;28;20130;-82
2020/12/31 11:14:46;;;;;;;10.48;5.47;;;3.10;99.90;;;;;;4890383;28;20452;-82
2020/12/31 11:17:10;;;;;;;12.15;5.45;;;3.10;99.90;;;;;;4891006;28;20085;-83
2020/12/31 11:19:36;;;;;;;9.48;5.20;;;3.00;99.90;;;;;;4898362;28;20097;-84
2020/12/31 11:21:59;;;;;;;9.88;5.10;;;3.00;99.90;;;;;;4872930;28;20115;-82
2020/12/31 11:24:25;;;;;;;10.15;4.78;;;3.10;99.90;;;;;;4886231;28;20162;-82
2020/12/31 11:26:50;;;;;;;13.35;5.82;;;3.20;99.90;;;;;;4899008;28;20098;-82
2020/12/31 11:29:13;;;;;;;11.27;5.65;;;3.20;99.90;;;;;;4887558;28;20114;-81
2020/12/31 11:31:36;;;;;;;11.98;5.05;;;3.30;99.90;;;;;;4886090;28;20531;-82
2020/12/31 11:34:00;;;;;;;12.77;4.93;;;3.30;99.90;;;;;;4884229;28;20488;-82
2020/12/31 11:36:25;;;;;;;11.57;5.07;;;3.40;99.90;;;;;;4877955;28;20088;-82
2020/12/31 11:38:53;;;;;;;11.77;4.85;;;3.40;99.90;;;;;;4881193;28;20090;-82
2020/12/31 11:41:19;;;;;;;11.10;5.13;;;3.40;99.90;;;;;;4883790;28;20086;-81
2020/12/31 11:43:42;;;;;;;15.52;5.65;;;3.40;99.90;;;;;;4879342;28;20552;-81
2020/12/31 11:46:08;;;;;;;10.70;5.00;;;3.40;99.90;;;;;;4874747;28;20095;-79
2020/12/31 11:48:30;;;;;;;;;;;3.50;99.90;;;;;;4886038;28;20506;-79
2020/12/31 11:50:53;;;;;;;11.75;4.28;;;3.50;99.90;;;;;;4881649;28;20042;-79
2020/12/31 11:53:17;;;;;;;12.90;5.05;;;;;;;;;;4881890;28;20158;-79
2020/12/31 11:55:41;;;;;;;13.50;4.75;;;3.40;99.90;;;;;;4867964;28;20084;-78
2020/12/31 11:58:06;;;;;;;10.48;5.28;;;3.30;99.90;;;;;;4887110;28;20085;-80
2020/12/31 12:00:29;;;;;;;14.07;4.80;;;3.40;99.90;;;;;;4881408;28;20084;-79
2020/12/31 12:02:52;;;;;;;9.52;4.78;;;3.50;99.90;;;;;;4880042;28;20095;-80
2020/12/31 12:05:16;;;;;;;11.30;4.82;;;3.50;99.90;;;;;;4870143;28;20097;-80
2020/12/31 12:07:40;;;;;;;9.27;4.53;;;3.60;99.90;;;;;;4886737;28;20214;-80
2020/12/31 12:10:06;;;;;;;10.43;4.70;;;3.60;99.90;;;;;;4880183;28;20096;-81
2020/12/31 12:12:30;;;;;;;9.07;4.05;;;3.60;99.90;;;;;;4882435;28;20079;-79
2020/12/31 12:14:53;;;;;;;10.75;4.32;;;;;;;;;;4876964;28;20087;-80
2020/12/31 12:17:16;;;;;;;9.35;4.13;;;3.60;99.90;;;;;;4875434;28;20083;-81
2020/12/31 12:19:38;;;;;;;11.02;4.25;;;3.60;99.90;;;;;;4876549;28;20087;-80
2020/12/31 12:22:02;;;;;;;12.02;4.88;;;3.70;99.90;;;;;;4876917;28;20084;-81
2020/12/31 12:24:25;;;;;;;7.43;4.05;;;3.70;99.90;;;;;;4880121;28;20084;-81
2020/12/31 12:26:49;;;;;;;10.05;4.82;;;;;;;;;;4879616;28;20084;-81
2020/12/31 12:29:14;;;;;;;10.52;4.45;;;3.60;99.90;;;;;;4880403;28;20087;-81
2020/12/31 12:31:38;;;;;;;7.57;4.03;;;3.70;99.90;;;;;;4880203;28;20141;-81
2020/12/31 12:34:01;;;;;;;9.00;4.18;;;3.80;99.90;;;;;;4878786;28;20087;-79
2020/12/31 12:36:24;;;;;;;8.88;4.28;;;3.90;99.90;;;;;;4882497;28;23447;-81
2020/12/31 12:38:47;;;;;;;7.95;4.45;;;;;;;;;;4882060;28;20229;-81
2020/12/31 12:41:12;;;;;;;8.15;4.03;;;3.80;99.90;;;;;;4879432;28;20190;-81
2020/12/31 12:43:36;;;;;;;9.95;4.40;;;;;;;;;;4875369;28;20429;-81
2020/12/31 12:45:58;;;;;;;8.18;4.00;;;3.70;99.90;;;;;;4879793;28;20526;-81
2020/12/31 12:48:21;;;;;;;9.38;4.60;;;3.70;99.90;;;;;;4876914;28;21227;-81
2020/12/31 12:50:45;;;;;;;9.55;4.30;;;3.60;99.90;;;;;;4882662;28;20102;-81
2020/12/31 12:53:08;;;;;;;10.82;4.47;;;3.60;99.90;;;;;;4878230;28;20166;-81
2020/12/31 12:55:30;;;;;;;9.55;4.20;;;3.60;99.90;;;;;;4880409;28;20137;-81
2020/12/31 12:57:53;;;;;;;9.00;4.40;;;3.50;99.90;;;;;;4881655;28;20616;-82
2020/12/31 13:00:18;;;;;;;7.85;4.03;;;3.50;99.90;;;;;;4875261;28;20083;-81
2020/12/31 13:02:41;;;;;;;8.52;4.53;;;3.40;99.90;;;;;;4876906;28;20091;-79
2020/12/31 13:05:05;;;;;;;11.57;4.45;;;3.30;99.90;;;;;;4877887;28;20110;-81
2020/12/31 13:07:28;;;;;;;8.85;4.22;;;3.20;99.90;;;;;;4877242;28;20095;-82
2020/12/31 13:09:51;;;;;;;9.70;4.03;;;3.20;99.90;;;;;;4880920;28;20167;-81
2020/12/31 13:12:14;;;;;;;10.35;4.45;;;3.10;99.90;;;;;;4881219;28;20083;-80
2020/12/31 13:14:38;;;;;;;12.10;5.45;;;3.10;99.90;;;;;;4880970;28;20442;-82
2020/12/31 13:17:02;;;;;;;8.02;3.92;;;3.10;99.90;;;;;;4883458;28;20096;-81
2020/12/31 13:19:25;;;;;;;12.13;5.32;;;3.20;99.90;;;;;;4884869;28;20171;-80
2020/12/31 13:21:48;;;;;;;9.55;4.68;;;3.20;99.90;;;;;;4882559;28;20116;-80
2020/12/31 13:24:11;;;;;;;12.13;4.75;;;3.20;99.90;;;;;;4871095;28;20090;-81
2020/12/31 13:26:35;;;;;;;7.85;3.97;;;3.20;99.90;;;;;;4876378;28;20574;-80